createdAt,value
2022-08-07T00:01:44.053Z,58.57
2022-08-07T00:04:31.184Z,58.59
2022-08-07T00:07:01.647Z,58.57
2022-08-07T00:09:35.936Z,58.48
2022-08-07T00:12:07.812Z,58.51
2022-08-07T00:14:44.193Z,58.38
2022-08-07T00:17:16.881Z,58.37
2022-08-07T00:20:01.379Z,58.46
2022-08-07T00:22:35.601Z,58.40
2022-08-07T00:25:16.458Z,58.31
2022-08-07T00:27:53.199Z,58.12
2022-08-07T00:30:27.604Z,58.30
2022-08-07T00:33:00.011Z,58.08
2022-08-07T00:35:32.098Z,57.99
2022-08-07T00:38:06.373Z,57.81
2022-08-07T00:40:40.474Z,57.85
2022-08-07T00:44:00.694Z,57.78
2022-08-07T00:46:05.140Z,57.60
2022-08-07T00:48:42.383Z,57.57
2022-08-07T00:51:13.003Z,57.58
2022-08-07T00:53:50.245Z,57.41
2022-08-07T00:56:23.018Z,57.35
2022-08-07T00:59:01.459Z,57.42
2022-08-07T01:01:44.012Z,57.46
2022-08-07T01:04:24.820Z,57.62
2022-08-07T01:06:57.734Z,57.53
2022-08-07T01:10:05.090Z,57.60
2022-08-07T01:12:30.221Z,57.59
2022-08-07T01:15:04.235Z,57.63
2022-08-07T01:17:37.559Z,57.81
2022-08-07T01:20:16.668Z,57.86
2022-08-07T01:23:00.522Z,57.92
2022-08-07T01:25:55.626Z,57.86
2022-08-07T01:28:27.572Z,57.96
2022-08-07T01:31:00.135Z,58.06
2022-08-07T01:33:55.105Z,58.06
2022-08-07T01:36:33.248Z,58.11
2022-08-07T01:39:09.775Z,58.06
2022-08-07T01:41:40.812Z,57.96
2022-08-07T01:44:25.871Z,57.80
2022-08-07T01:46:57.172Z,57.85
2022-08-07T01:49:34.638Z,57.73
2022-08-07T01:52:07.830Z,57.70
2022-08-07T01:54:43.199Z,57.68
2022-08-07T01:57:30.877Z,57.64
2022-08-07T02:00:12.856Z,57.55
2022-08-07T02:03:19.248Z,57.60
2022-08-07T02:05:59.828Z,57.44
2022-08-07T02:08:35.584Z,57.46
2022-08-07T02:11:10.714Z,57.39
2022-08-07T02:14:02.952Z,57.39
2022-08-07T02:16:33.949Z,57.36
2022-08-07T02:20:04.213Z,57.27
2022-08-07T02:22:01.687Z,57.31
2022-08-07T02:24:33.956Z,57.27
2022-08-07T02:27:06.908Z,57.21
2022-08-07T02:29:48.592Z,57.02
2022-08-07T02:32:26.982Z,56.97
2022-08-07T02:35:09.050Z,57.14
2022-08-07T02:37:44.020Z,57.07
2022-08-07T02:40:30.432Z,57.01
2022-08-07T02:43:08.957Z,56.88
2022-08-07T02:46:00.952Z,56.94
2022-08-07T02:48:34.946Z,56.96
2022-08-07T02:51:14.283Z,56.99
2022-08-07T02:54:01.987Z,57.06
2022-08-07T02:56:35.065Z,57.13
2022-08-07T02:59:10.687Z,57.07
2022-08-07T03:01:47.264Z,57.22
2022-08-07T03:04:24.580Z,57.42
2022-08-07T03:06:55.973Z,57.59
2022-08-07T03:09:43.897Z,57.75
2022-08-07T03:12:22.219Z,57.93
2022-08-07T03:14:56.271Z,58.22
2022-08-07T03:17:28.637Z,58.49
2022-08-07T03:20:01.009Z,58.34
2022-08-07T03:22:34.285Z,58.47
2022-08-07T03:25:11.352Z,58.56
2022-08-07T03:28:09.025Z,58.55
2022-08-07T03:30:38.384Z,58.71
2022-08-07T03:33:10.554Z,59.04
2022-08-07T03:35:50.283Z,59.14
2022-08-07T03:38:29.589Z,59.42
2022-08-07T03:41:03.361Z,59.55
2022-08-07T03:43:36.150Z,59.85
2022-08-07T03:46:10.487Z,60.15
2022-08-07T03:49:02.394Z,60.44
2022-08-07T03:51:47.518Z,60.85
2022-08-07T03:54:35.377Z,61.26
2022-08-07T03:58:34.774Z,61.45
2022-08-07T04:00:04.548Z,61.51
2022-08-07T04:02:35.539Z,61.40
2022-08-07T04:05:13.118Z,61.34
2022-08-07T04:07:49.734Z,61.43
2022-08-07T04:10:21.827Z,61.58
2022-08-07T04:12:56.643Z,61.86
2022-08-07T04:15:29.400Z,61.91
2022-08-07T04:18:57.425Z,61.91
2022-08-07T04:20:54.845Z,62.07
2022-08-07T04:23:43.891Z,62.17
2022-08-07T04:26:21.820Z,62.13
2022-08-07T04:28:54.034Z,62.10
2022-08-07T04:31:39.031Z,62.16
2022-08-07T04:34:24.193Z,62.26
2022-08-07T04:37:08.141Z,62.51
2022-08-07T04:39:50.775Z,62.65
2022-08-07T04:42:28.745Z,62.70
2022-08-07T04:45:02.912Z,62.83
2022-08-07T04:47:57.211Z,62.98
2022-08-07T04:50:38.741Z,63.09
2022-08-07T04:53:40.188Z,63.23
2022-08-07T04:58:24.429Z,63.15
2022-08-07T05:00:10.859Z,63.23
2022-08-07T05:02:16.902Z,63.34
2022-08-07T05:05:01.382Z,63.27
2022-08-07T05:07:48.388Z,63.41
2022-08-07T05:10:29.268Z,63.51
2022-08-07T05:14:44.943Z,63.37
2022-08-07T05:15:57.547Z,63.26
2022-08-07T05:18:32.093Z,63.16
2022-08-07T05:21:05.732Z,63.17
2022-08-07T05:23:40.944Z,63.08
2022-08-07T05:26:23.717Z,62.95
2022-08-07T05:28:57.682Z,62.87
2022-08-07T05:31:34.536Z,62.75
2022-08-07T05:34:11.055Z,62.56
2022-08-07T05:36:49.149Z,62.50
2022-08-07T05:40:05.414Z,62.53
2022-08-07T05:42:33.323Z,62.49
2022-08-07T05:45:26.127Z,62.44
2022-08-07T05:48:03.819Z,62.27
2022-08-07T05:50:35.975Z,62.20
2022-08-07T05:54:11.924Z,62.02
2022-08-07T05:56:05.734Z,61.90
2022-08-07T05:58:39.061Z,61.62
2022-08-07T06:01:14.081Z,61.45
2022-08-07T06:03:57.200Z,61.06
2022-08-07T06:06:33.737Z,60.75
2022-08-07T06:09:05.374Z,60.38
2022-08-07T06:11:37.924Z,60.20
2022-08-07T06:14:11.677Z,60.40
2022-08-07T06:16:56.377Z,59.60
2022-08-07T06:19:49.890Z,59.71
2022-08-07T06:22:23.982Z,59.64
2022-08-07T06:25:02.968Z,59.55
2022-08-07T06:27:59.926Z,59.27
2022-08-07T06:30:36.090Z,58.90
2022-08-07T06:33:15.762Z,58.93
2022-08-07T06:36:06.694Z,58.85
2022-08-07T06:38:39.546Z,58.70
2022-08-07T06:42:02.318Z,58.07
2022-08-07T06:44:25.134Z,58.16
2022-08-07T06:47:10.577Z,58.19
2022-08-07T06:49:50.984Z,57.88
2022-08-07T06:52:31.727Z,58.15
2022-08-07T06:55:33.377Z,58.01
2022-08-07T06:58:04.966Z,57.95
2022-08-07T07:00:42.666Z,57.82
2022-08-07T07:03:17.216Z,57.70
2022-08-07T07:06:05.103Z,57.41
2022-08-07T07:08:39.935Z,57.25
2022-08-07T07:12:08.357Z,57.33
2022-08-07T07:14:09.910Z,57.26
2022-08-07T07:16:51.124Z,57.09
2022-08-07T07:19:55.547Z,56.76
2022-08-07T07:22:36.724Z,55.88
2022-08-07T07:26:35.369Z,55.57
2022-08-07T07:28:42.537Z,55.98
2022-08-07T07:31:08.138Z,56.26
2022-08-07T07:33:41.838Z,56.55
2022-08-07T07:36:17.418Z,56.48
2022-08-07T07:38:50.500Z,56.63
2022-08-07T07:41:30.876Z,56.45
2022-08-07T07:44:25.906Z,56.23
2022-08-07T07:47:16.072Z,56.22
2022-08-07T07:50:32.645Z,55.93
2022-08-07T07:52:47.368Z,55.93
2022-08-07T07:55:21.678Z,55.78
2022-08-07T07:57:58.465Z,55.56
2022-08-07T08:00:34.475Z,54.98
2022-08-07T08:03:16.770Z,54.45
2022-08-07T08:06:02.530Z,53.88
2022-08-07T08:08:37.042Z,53.60
2022-08-07T08:11:16.005Z,53.28
2022-08-07T08:13:53.713Z,53.33
2022-08-07T08:16:29.866Z,53.13
2022-08-07T08:19:09.945Z,52.32
2022-08-07T08:22:07.721Z,51.93
2022-08-07T08:25:09.470Z,52.23
2022-08-07T08:27:57.589Z,51.40
2022-08-07T08:30:37.588Z,50.51
2022-08-07T08:33:24.023Z,50.70
2022-08-07T08:35:56.726Z,50.76
2022-08-07T08:38:38.142Z,50.81
2022-08-07T08:41:25.932Z,50.47
2022-08-07T08:44:09.429Z,50.06
2022-08-07T08:46:49.232Z,49.22
2022-08-07T08:49:33.116Z,47.66
2022-08-07T08:52:32.162Z,47.93
2022-08-07T08:55:53.241Z,46.94
2022-08-07T08:58:20.410Z,46.67
2022-08-07T09:01:14.720Z,44.36
2022-08-07T09:03:56.750Z,44.39
2022-08-07T09:06:40.304Z,45.40
2022-08-07T09:09:33.080Z,44.33
2022-08-07T09:12:31.196Z,44.42
2022-08-07T09:16:22.378Z,44.62
2022-08-07T09:18:23.593Z,44.87
2022-08-07T09:21:05.001Z,44.77
2022-08-07T09:24:33.627Z,44.28
2022-08-07T09:26:50.941Z,44.00
2022-08-07T09:30:04.319Z,43.71
2022-08-07T09:32:43.391Z,43.79
2022-08-07T09:36:03.506Z,43.92
2022-08-07T09:38:26.484Z,44.13
2022-08-07T09:41:07.264Z,43.34
2022-08-07T09:44:06.115Z,43.67
2022-08-07T09:47:52.127Z,43.70
2022-08-07T09:50:02.860Z,42.90
2022-08-07T09:52:52.211Z,42.36
2022-08-07T09:56:02.684Z,42.36
2022-08-07T09:58:51.380Z,42.64
2022-08-07T10:01:52.185Z,42.86
2022-08-07T10:04:57.344Z,42.56
2022-08-07T10:07:52.287Z,41.66
2022-08-07T10:11:00.246Z,41.20
2022-08-07T10:14:01.360Z,40.96
2022-08-07T10:16:55.286Z,39.96
2022-08-07T10:19:41.891Z,40.48
2022-08-07T10:22:33.876Z,41.09
2022-08-07T10:25:20.915Z,41.59
2022-08-07T10:28:19.957Z,41.80
2022-08-07T10:31:06.039Z,41.26
2022-08-07T10:34:15.407Z,40.95
2022-08-07T10:37:03.975Z,41.45
2022-08-07T10:40:03.295Z,41.25
2022-08-07T10:42:46.631Z,40.11
2022-08-07T10:45:57.384Z,39.38
2022-08-07T10:48:37.670Z,39.75
2022-08-07T10:51:16.442Z,40.38
2022-08-07T10:54:14.673Z,40.43
2022-08-07T10:56:58.169Z,40.63
2022-08-07T10:59:47.242Z,40.17
2022-08-07T11:02:34.336Z,39.90
2022-08-07T11:05:44.840Z,39.75
2022-08-07T11:08:34.599Z,39.87
2022-08-07T11:11:10.095Z,39.12
2022-08-07T11:14:44.523Z,38.36
2022-08-07T11:16:39.042Z,39.22
2022-08-07T11:19:15.190Z,39.19
2022-08-07T11:22:03.371Z,38.65
2022-08-07T11:24:45.633Z,39.07
2022-08-07T11:28:02.036Z,38.85
2022-08-07T11:30:41.404Z,38.80
2022-08-07T11:33:18.529Z,38.56
2022-08-07T11:36:20.548Z,39.08
2022-08-07T11:39:07.298Z,39.51
2022-08-07T11:42:01.812Z,37.71
2022-08-07T11:44:52.666Z,38.99
2022-08-07T11:47:56.430Z,38.52
2022-08-07T11:50:58.007Z,38.14
2022-08-07T11:53:43.380Z,36.44
2022-08-07T11:56:53.096Z,35.80
2022-08-07T12:00:11.186Z,37.04
2022-08-07T12:03:44.910Z,37.61
2022-08-07T12:06:51.533Z,37.98
2022-08-07T12:09:37.641Z,38.43
2022-08-07T12:12:12.154Z,37.94
2022-08-07T12:14:53.873Z,38.19
2022-08-07T12:17:34.286Z,38.06
2022-08-07T12:20:30.051Z,37.84
2022-08-07T12:23:21.551Z,36.29
2022-08-07T12:26:29.212Z,36.15
2022-08-07T12:29:08.363Z,36.34
2022-08-07T12:32:04.065Z,35.78
2022-08-07T12:34:37.844Z,35.17
2022-08-07T12:37:16.525Z,36.40
2022-08-07T12:39:57.499Z,36.48
2022-08-07T12:42:31.934Z,36.44
2022-08-07T12:45:08.245Z,36.75
2022-08-07T12:47:49.167Z,36.11
2022-08-07T12:50:34.440Z,35.48
2022-08-07T12:53:17.745Z,35.12
2022-08-07T12:56:02.354Z,35.88
2022-08-07T12:58:39.500Z,36.06
2022-08-07T13:01:32.633Z,34.15
2022-08-07T13:04:34.242Z,35.20
2022-08-07T13:08:11.975Z,34.25
2022-08-07T13:10:43.999Z,35.37
2022-08-07T13:13:50.282Z,35.04
2022-08-07T13:16:30.650Z,34.21
2022-08-07T13:19:11.497Z,34.69
2022-08-07T13:22:04.004Z,34.05
2022-08-07T13:24:52.441Z,32.85
2022-08-07T13:28:05.565Z,33.68
2022-08-07T13:30:40.145Z,34.97
2022-08-07T13:34:31.595Z,35.15
2022-08-07T13:36:31.608Z,32.92
2022-08-07T13:39:28.372Z,32.16
2022-08-07T13:42:10.497Z,33.18
2022-08-07T13:44:43.202Z,32.72
2022-08-07T13:48:06.221Z,33.03
2022-08-07T13:50:32.956Z,32.45
2022-08-07T13:53:23.892Z,32.13
2022-08-07T13:55:57.511Z,33.26
2022-08-07T13:58:50.394Z,33.00
2022-08-07T14:01:33.247Z,32.67
2022-08-07T14:04:24.256Z,32.60
2022-08-07T14:07:06.208Z,30.74
2022-08-07T14:10:03.043Z,31.28
2022-08-07T14:12:49.176Z,31.92
2022-08-07T14:15:32.025Z,32.23
2022-08-07T14:18:23.774Z,31.68
2022-08-07T14:21:21.131Z,31.99
2022-08-07T14:24:03.697Z,31.34
2022-08-07T14:26:39.291Z,29.83
2022-08-07T14:32:08.194Z,30.84
2022-08-07T14:37:39.271Z,29.91
2022-08-07T14:40:26.615Z,29.53
2022-08-07T14:43:55.186Z,29.04
2022-08-07T14:52:03.779Z,28.63
2022-08-07T14:54:35.716Z,28.14
2022-08-07T14:57:11.300Z,27.50
2022-08-07T15:02:56.922Z,25.83
2022-08-07T15:05:32.880Z,23.78
2022-08-07T15:08:08.905Z,23.89
2022-08-07T15:10:58.783Z,24.03
2022-08-07T15:19:19.938Z,21.13
2022-08-07T15:22:22.112Z,21.33
2022-08-07T15:25:17.285Z,21.90
2022-08-07T15:28:33.092Z,20.38
2022-08-07T15:33:43.050Z,20.76
2022-08-07T15:36:15.182Z,20.50
2022-08-07T15:39:10.624Z,20.14
2022-08-07T15:42:45.653Z,19.05
2022-08-07T15:48:01.468Z,19.07
2022-08-07T15:53:53.162Z,20.17
2022-08-07T15:56:33.223Z,20.59
2022-08-07T15:59:06.805Z,21.28
2022-08-07T16:02:01.770Z,22.62
2022-08-07T16:04:36.940Z,23.94
2022-08-07T16:08:29.139Z,24.22
2022-08-07T16:10:14.976Z,24.81
2022-08-07T16:13:05.507Z,25.56
2022-08-07T16:15:58.958Z,26.24
2022-08-07T16:18:50.782Z,26.72
2022-08-07T16:22:01.419Z,27.45
2022-08-07T16:24:36.568Z,28.03
2022-08-07T16:27:18.287Z,28.47
2022-08-07T16:30:32.033Z,28.75
2022-08-07T16:34:06.527Z,28.73
2022-08-07T16:36:22.172Z,28.88
2022-08-07T16:39:40.584Z,29.21
2022-08-07T16:42:36.593Z,29.65
2022-08-07T16:49:04.213Z,30.32
2022-08-07T16:51:54.227Z,31.00
2022-08-07T16:54:55.345Z,31.12
2022-08-07T16:58:01.492Z,30.74
2022-08-07T17:00:34.643Z,31.11
2022-08-07T17:03:17.860Z,31.62
2022-08-07T17:06:29.333Z,31.80
2022-08-07T17:09:15.839Z,32.03
2022-08-07T17:12:35.973Z,32.20
2022-08-07T17:15:09.007Z,32.51
2022-08-07T17:17:50.124Z,33.12
2022-08-07T17:20:32.833Z,33.34
2022-08-07T17:23:18.342Z,33.31
2022-08-07T17:26:23.486Z,33.53
2022-08-07T17:29:09.584Z,33.66
2022-08-07T17:32:28.365Z,33.67
2022-08-07T17:35:49.853Z,34.31
2022-08-07T17:38:11.333Z,34.36
2022-08-07T17:41:12.407Z,34.65
2022-08-07T17:44:02.638Z,35.02
2022-08-07T17:46:44.199Z,35.20
2022-08-07T17:49:23.809Z,35.40
2022-08-07T17:52:01.134Z,35.63
2022-08-07T17:54:53.494Z,35.98
2022-08-07T17:57:32.076Z,36.15
2022-08-07T18:00:27.468Z,36.27
2022-08-07T18:03:18.273Z,36.35
2022-08-07T18:06:01.773Z,36.47
2022-08-07T18:09:00.621Z,36.40
2022-08-07T18:12:12.002Z,36.87
2022-08-07T18:14:37.667Z,37.24
2022-08-07T18:18:47.013Z,37.35
2022-08-07T18:21:03.599Z,37.54
2022-08-07T18:23:43.069Z,37.89
2022-08-07T18:26:26.828Z,38.12
2022-08-07T18:30:04.263Z,38.27
2022-08-07T18:32:25.646Z,38.57
2022-08-07T18:35:17.564Z,38.83
2022-08-07T18:38:59.083Z,39.12
2022-08-07T18:41:16.863Z,39.22
2022-08-07T18:44:01.492Z,39.46
2022-08-07T18:46:42.887Z,39.86
2022-08-07T18:50:35.235Z,40.05
2022-08-07T18:52:54.171Z,40.42
2022-08-07T18:55:42.346Z,40.72
2022-08-07T18:58:57.963Z,41.04
2022-08-07T19:02:18.291Z,41.37
2022-08-07T19:04:57.712Z,41.82
2022-08-07T19:07:36.067Z,42.06
2022-08-07T19:10:31.393Z,42.45
2022-08-07T19:13:10.154Z,42.66
2022-08-07T19:16:05.634Z,42.85
2022-08-07T19:18:46.466Z,43.17
2022-08-07T19:21:44.071Z,43.60
2022-08-07T19:24:30.669Z,43.96
2022-08-07T19:28:29.401Z,44.23
2022-08-07T19:30:56.821Z,43.97
2022-08-07T19:32:59.657Z,44.21
2022-08-07T19:35:33.758Z,44.00
2022-08-07T19:38:16.643Z,44.26
2022-08-07T19:40:51.525Z,44.63
2022-08-07T19:43:50.075Z,44.62
2022-08-07T19:46:19.314Z,44.80
2022-08-07T19:48:54.697Z,44.73
2022-08-07T19:51:52.343Z,45.06
2022-08-07T19:54:31.146Z,45.13
2022-08-07T19:58:04.683Z,45.25
2022-08-07T20:00:10.534Z,45.38
2022-08-07T20:02:51.557Z,45.55
2022-08-07T20:05:28.680Z,45.83
2022-08-07T20:08:05.633Z,46.17
2022-08-07T20:10:55.074Z,45.84
2022-08-07T20:13:41.885Z,45.96
2022-08-07T20:16:34.923Z,46.08
2022-08-07T20:19:10.471Z,46.48
2022-08-07T20:21:47.564Z,46.77
2022-08-07T20:24:22.910Z,47.25
2022-08-07T20:26:57.195Z,47.38
2022-08-07T20:29:48.965Z,47.59
2022-08-07T20:32:40.048Z,47.71
2022-08-07T20:35:15.809Z,48.01
2022-08-07T20:37:57.659Z,48.26
2022-08-07T20:40:34.879Z,47.94
2022-08-07T20:43:09.743Z,47.96
2022-08-07T20:46:25.666Z,48.06
2022-08-07T20:49:54.319Z,48.20
2022-08-07T20:51:40.303Z,48.36
2022-08-07T20:54:15.299Z,48.15
2022-08-07T20:57:04.507Z,48.20
2022-08-07T21:00:07.389Z,48.26
2022-08-07T21:05:52.802Z,48.50
2022-08-07T21:08:39.239Z,48.54
2022-08-07T21:11:15.580Z,48.57
2022-08-07T21:14:16.835Z,48.53
2022-08-07T21:17:06.490Z,48.74
2022-08-07T21:19:51.218Z,48.71
2022-08-07T21:22:36.500Z,48.72
2022-08-07T21:25:13.377Z,48.79
2022-08-07T21:28:07.857Z,48.92
2022-08-07T21:30:56.496Z,48.72
2022-08-07T21:33:41.696Z,48.65
2022-08-07T21:36:31.391Z,48.77
2022-08-07T21:39:45.109Z,48.61
2022-08-07T21:42:42.829Z,48.73
2022-08-07T21:46:08.867Z,48.87
2022-08-07T21:48:27.662Z,48.94
2022-08-07T21:51:19.836Z,48.99
2022-08-07T21:54:10.671Z,48.94
2022-08-07T21:56:48.989Z,49.10
2022-08-07T22:00:02.685Z,49.36
2022-08-07T22:02:32.207Z,49.80
2022-08-07T22:05:07.206Z,49.87
2022-08-07T22:07:58.787Z,49.94
2022-08-07T22:10:35.612Z,50.18
2022-08-07T22:13:13.572Z,50.10
2022-08-07T22:16:42.750Z,49.82
2022-08-07T22:18:48.431Z,49.71
2022-08-07T22:21:22.055Z,49.43
2022-08-07T22:23:58.111Z,49.39
2022-08-07T22:26:44.188Z,49.27
2022-08-07T22:29:37.786Z,49.24
2022-08-07T22:32:21.195Z,49.08
2022-08-07T22:34:57.362Z,48.87
2022-08-07T22:38:04.190Z,49.01
2022-08-07T22:40:41.135Z,49.15
2022-08-07T22:43:14.534Z,49.37
2022-08-07T22:46:21.341Z,49.35
2022-08-07T22:49:09.506Z,49.23
2022-08-07T22:52:12.998Z,49.31
2022-08-07T22:55:30.991Z,49.48
2022-08-07T22:58:12.020Z,49.49
2022-08-07T23:00:55.166Z,49.46
2022-08-07T23:03:57.961Z,49.74
2022-08-07T23:06:59.021Z,49.80
2022-08-07T23:10:06.535Z,49.92
2022-08-07T23:12:46.912Z,50.41
2022-08-07T23:16:06.515Z,50.55
2022-08-07T23:18:32.327Z,50.40
2022-08-07T23:21:29.904Z,50.60
2022-08-07T23:24:21.123Z,50.69
2022-08-07T23:27:07.744Z,50.95
2022-08-07T23:30:38.667Z,50.83
2022-08-07T23:34:35.327Z,50.80
2022-08-07T23:36:35.729Z,50.76
2022-08-07T23:39:14.101Z,50.89
2022-08-07T23:42:04.050Z,51.11
2022-08-07T23:44:54.079Z,51.05
2022-08-07T23:47:42.292Z,51.22
2022-08-07T23:50:33.589Z,51.38
2022-08-07T23:53:16.733Z,51.44
2022-08-07T23:55:58.223Z,51.43
2022-08-07T23:58:45.198Z,51.73
